Time;durP1;ratioP1;P1;durP2;ratioP2;P2;SDS_P1;SDS_P2;PMS_P1;PMS_P2;Temp;Humidity;BMP_temperature;BMP_pressure;BME280_temperature;BME280_humidity;BME280_pressure;Samples;Min_cycle;Max_cycle;Signal;HPM_P1;HPM_P2
2022/03/17 00:00:33;;;;;;;46.03;24.15;;;;;;;;;;4965757;28;20065;-69
2022/03/17 00:02:59;;;;;;;39.30;24.15;;;;;;;;;;4965334;28;20039;-69
2022/03/17 00:05:25;;;;;;;47.28;26.30;;;;;;;;;;4944633;28;20030;-69
2022/03/17 00:07:51;;;;;;;42.42;23.48;;;;;;;;;;4967136;28;20134;-69
2022/03/17 00:10:17;;;;;;;39.13;24.92;;;;;;;;;;4962495;28;20018;-69
2022/03/17 00:12:44;;;;;;;39.35;23.15;;;;;;;;;;4962343;28;20042;-69
2022/03/17 00:15:11;;;;;;;43.47;24.42;;;;;;;;;;4962438;28;20039;-69
2022/03/17 00:17:37;;;;;;;41.15;23.17;;;;;;;;;;4972654;28;20057;-69
2022/03/17 00:20:06;;;;;;;36.38;21.75;;;;;;;;;;4967625;28;20432;-69
2022/03/17 00:22:31;;;;;;;43.63;24.95;;;;;;;;;;4962152;28;20054;-69
2022/03/17 00:24:57;;;;;;;37.83;23.67;;;;;;;;;;4967002;28;20897;-69
2022/03/17 00:27:22;;;;;;;40.03;23.83;;;;;;;;;;4961900;28;20105;-69
2022/03/17 00:29:50;;;;;;;43.13;25.63;;;;;;;;;;4961583;28;20198;-69
2022/03/17 00:32:16;;;;;;;41.08;24.25;;;;;;;;;;4962000;28;20038;-69
2022/03/17 00:37:26;;;;;;;42.22;25.13;;;;;;;;;;4961655;28;20074;-69
2022/03/17 00:39:53;;;;;;;41.92;24.55;;;;;;;;;;4968951;28;20125;-69
2022/03/17 00:42:20;;;;;;;39.50;23.83;;;;;;;;;;4967976;28;20046;-69
2022/03/17 00:44:46;;;;;;;38.28;23.58;;;;;;;;;;4969729;28;20527;-69
2022/03/17 00:47:13;;;;;;;41.35;23.42;;;;;;;;;;4951505;28;20130;-69
2022/03/17 00:49:38;;;;;;;37.40;23.65;;;;;;;;;;4969596;28;20162;-69
2022/03/17 00:52:09;;;;;;;36.38;20.27;;;;;;;;;;4961097;28;20087;-69
2022/03/17 00:54:36;;;;;;;44.08;24.25;;;;;;;;;;4961362;28;20519;-69
2022/03/17 00:57:02;;;;;;;38.45;22.48;;;;;;;;;;4961544;28;20035;-69
2022/03/17 00:59:27;;;;;;;40.53;24.35;;;;;;;;;;4933484;28;20045;-69
2022/03/17 01:01:53;;;;;;;42.90;25.20;;;;;;;;;;4971757;28;20035;-69
2022/03/17 01:04:19;;;;;;;39.92;24.45;;;;;;;;;;4970204;28;20065;-69
2022/03/17 01:06:44;;;;;;;41.03;24.95;;;;;;;;;;4951278;28;20038;-69
2022/03/17 01:09:10;;;;;;;40.45;23.88;;;;;;;;;;4966494;28;20088;-70
2022/03/17 01:11:35;;;;;;;38.85;23.75;;;;;;;;;;4964837;28;20483;-69
2022/03/17 01:14:01;;;;;;;40.95;23.90;;;;;;;;;;4963946;28;20117;-69
2022/03/17 01:16:26;;;;;;;42.25;24.45;;;;;;;;;;4975265;28;20037;-69
2022/03/17 01:18:51;;;;;;;43.08;25.52;;;;;;;;;;4969068;28;20403;-70
2022/03/17 01:21:17;;;;;;;41.63;24.80;;;;;;;;;;4964717;28;20038;-70
2022/03/17 01:23:42;;;;;;;42.33;24.92;;;;;;;;;;4964642;28;20034;-69
2022/03/17 01:26:08;;;;;;;45.97;25.80;;;;;;;;;;4969685;28;20053;-69
2022/03/17 01:28:33;;;;;;;41.30;25.00;;;;;;;;;;4964417;28;20042;-69
2022/03/17 01:30:58;;;;;;;46.95;26.08;;;;;;;;;;4971883;28;20053;-69
2022/03/17 01:33:24;;;;;;;44.08;25.65;;;;;;;;;;4964366;28;20039;-69
2022/03/17 01:35:49;;;;;;;42.60;25.65;;;;;;;;;;4963514;28;20366;-70
2022/03/17 01:38:15;;;;;;;46.58;24.27;;;;;;;;;;4963660;28;20038;-70
2022/03/17 01:40:40;;;;;;;47.47;25.15;;;;;;;;;;4964564;28;20038;-69
2022/03/17 01:43:06;;;;;;;44.65;27.45;;;;;;;;;;4963810;28;21110;-69
2022/03/17 01:45:31;;;;;;;47.85;27.17;;;;;;;;;;4967821;28;20030;-69
2022/03/17 01:47:57;;;;;;;46.80;28.10;;;;;;;;;;4981148;28;20034;-70
2022/03/17 01:50:23;;;;;;;49.45;28.80;;;;;;;;;;4964251;28;20043;-70
2022/03/17 01:52:49;;;;;;;49.63;26.80;;;;;;;;;;4964267;28;20030;-69
2022/03/17 01:55:17;;;;;;;50.15;27.02;;;;;;;;;;4963895;28;20046;-70
2022/03/17 01:57:44;;;;;;;48.83;29.08;;;;;;;;;;4968224;28;20045;-69
2022/03/17 02:00:13;;;;;;;52.22;28.77;;;;;;;;;;4966296;28;20046;-69
2022/03/17 02:02:41;;;;;;;54.78;28.42;;;;;;;;;;4969194;28;20031;-69
2022/03/17 02:05:06;;;;;;;50.40;28.95;;;;;;;;;;4970234;28;20030;-69
2022/03/17 02:07:32;;;;;;;53.15;29.80;;;;;;;;;;4967977;28;20041;-69
2022/03/17 02:09:59;;;;;;;51.70;28.45;;;;;;;;;;4971747;28;20101;-70
2022/03/17 02:15:10;;;;;;;47.65;28.92;;;;;;;;;;4962713;28;20043;-69
2022/03/17 02:17:39;;;;;;;50.60;29.10;;;;;;;;;;4969140;28;20031;-69
2022/03/17 02:20:07;;;;;;;53.35;29.02;;;;;;;;;;4968803;28;20121;-69
2022/03/17 02:22:33;;;;;;;46.97;27.55;;;;;;;;;;4962894;28;20030;-69
2022/03/17 02:27:47;;;;;;;43.60;24.90;;;;;;;;;;4963426;28;20125;-69
2022/03/17 02:30:21;;;;;;;51.15;28.85;;;;;;;;;;4963078;28;20417;-69
2022/03/17 02:32:47;;;;;;;46.03;24.73;;;;;;;;;;4961522;28;20049;-69
2022/03/17 02:35:22;;;;;;;46.58;26.40;;;;;;;;;;4962690;28;20153;-69
2022/03/17 02:37:49;;;;;;;50.67;29.27;;;;;;;;;;4960848;28;20045;-69
2022/03/17 02:40:15;;;;;;;52.67;30.83;;;;;;;;;;4963406;28;20057;-69
2022/03/17 02:42:41;;;;;;;47.90;27.77;;;;;;;;;;4962407;28;20973;-69
2022/03/17 02:45:10;;;;;;;54.10;30.02;;;;;;;;;;4971020;28;20125;-69
2022/03/17 02:47:37;;;;;;;48.17;28.13;;;;;;;;;;4969749;28;20035;-69
2022/03/17 02:50:04;;;;;;;51.88;27.90;;;;;;;;;;4964779;28;20034;-69
2022/03/17 02:52:29;;;;;;;53.55;32.08;;;;;;;;;;4962133;28;20097;-69
2022/03/17 02:54:55;;;;;;;57.95;29.30;;;;;;;;;;4970361;28;20042;-69
2022/03/17 02:57:21;;;;;;;56.17;28.27;;;;;;;;;;4962940;28;20030;-69
2022/03/17 02:59:48;;;;;;;56.22;30.23;;;;;;;;;;4946653;28;20035;-68
2022/03/17 03:02:15;;;;;;;55.15;29.13;;;;;;;;;;4971337;28;20043;-68
2022/03/17 03:04:41;;;;;;;50.85;28.65;;;;;;;;;;4962303;28;20027;-68
2022/03/17 03:07:06;;;;;;;51.55;30.70;;;;;;;;;;4962935;28;20049;-69
2022/03/17 03:09:33;;;;;;;57.05;32.88;;;;;;;;;;4949382;28;20492;-69
2022/03/17 03:11:59;;;;;;;50.30;29.92;;;;;;;;;;4975893;28;20067;-69
2022/03/17 03:14:25;;;;;;;58.30;31.42;;;;;;;;;;4970425;28;20038;-69
2022/03/17 03:16:51;;;;;;;54.17;30.90;;;;;;;;;;4969885;28;20984;-69
2022/03/17 03:19:16;;;;;;;65.03;31.92;;;;;;;;;;4963880;28;20031;-70
2022/03/17 03:21:45;;;;;;;56.20;29.50;;;;;;;;;;4962213;28;20815;-71
2022/03/17 03:24:12;;;;;;;57.40;32.80;;;;;;;;;;4945191;28;20413;-70
2022/03/17 03:26:40;;;;;;;60.10;34.15;;;;;;;;;;4968140;28;20031;-70
2022/03/17 03:31:51;;;;;;;63.33;31.80;;;;;;;;;;4969710;28;20038;-70
2022/03/17 03:34:16;;;;;;;60.53;32.95;;;;;;;;;;4962480;28;20035;-70
2022/03/17 03:39:26;;;;;;;61.95;33.17;;;;;;;;;;4961882;28;20396;-70
2022/03/17 03:41:52;;;;;;;66.63;33.75;;;;;;;;;;4962141;28;20019;-70
2022/03/17 03:44:17;;;;;;;61.78;32.58;;;;;;;;;;4961995;28;20570;-70
2022/03/17 03:46:43;;;;;;;60.10;32.75;;;;;;;;;;4969064;28;20122;-70
2022/03/17 03:49:09;;;;;;;56.58;31.58;;;;;;;;;;4967771;28;20039;-70
2022/03/17 03:51:34;;;;;;;56.80;30.90;;;;;;;;;;4968560;28;20070;-70
2022/03/17 03:54:18;;;;;;;57.63;31.02;;;;;;;;;;4962265;28;20400;-70
2022/03/17 03:56:54;;;;;;;59.83;33.05;;;;;;;;;;4969879;28;20066;-70
2022/03/17 03:59:22;;;;;;;60.00;31.30;;;;;;;;;;4967662;28;20030;-70
2022/03/17 04:02:09;;;;;;;57.47;31.58;;;;;;;;;;4969225;28;20043;-70
2022/03/17 04:04:35;;;;;;;58.15;31.48;;;;;;;;;;4961337;28;20110;-70
2022/03/17 04:07:03;;;;;;;60.83;32.00;;;;;;;;;;4961615;28;20031;-70
2022/03/17 04:09:33;;;;;;;53.13;30.70;;;;;;;;;;4961529;28;20161;-70
2022/03/17 04:11:58;;;;;;;52.25;29.75;;;;;;;;;;4962507;28;20356;-70
2022/03/17 04:14:24;;;;;;;57.08;31.35;;;;;;;;;;4961806;28;20499;-70
2022/03/17 04:16:50;;;;;;;60.03;31.08;;;;;;;;;;4969042;28;20118;-70
2022/03/17 04:19:16;;;;;;;49.00;29.58;;;;;;;;;;4961991;28;20110;-70
2022/03/17 04:21:42;;;;;;;56.13;30.48;;;;;;;;;;4967164;28;20042;-70
2022/03/17 04:24:08;;;;;;;53.33;29.90;;;;;;;;;;4967578;28;20491;-69
2022/03/17 04:26:34;;;;;;;58.55;31.98;;;;;;;;;;4961657;28;20042;-70
2022/03/17 04:28:59;;;;;;;56.92;30.27;;;;;;;;;;4961992;28;20090;-70
2022/03/17 04:31:25;;;;;;;57.75;32.33;;;;;;;;;;4970233;28;21980;-70
2022/03/17 04:33:51;;;;;;;63.20;33.50;;;;;;;;;;4967603;28;20047;-70
2022/03/17 04:36:17;;;;;;;56.53;32.20;;;;;;;;;;4964248;28;20031;-70
2022/03/17 04:38:43;;;;;;;55.40;30.38;;;;;;;;;;4963819;28;20129;-70
2022/03/17 04:41:10;;;;;;;51.03;30.02;;;;;;;;;;4965014;28;20122;-70
2022/03/17 04:43:36;;;;;;;51.83;29.13;;;;;;;;;;4964609;28;20808;-70
2022/03/17 04:46:02;;;;;;;56.22;30.67;;;;;;;;;;4966000;28;20098;-70
2022/03/17 04:48:28;;;;;;;56.13;32.10;;;;;;;;;;4964808;28;20815;-70
2022/03/17 04:50:53;;;;;;;63.58;34.35;;;;;;;;;;4965271;28;20027;-70
2022/03/17 04:53:29;;;;;;;65.20;33.08;;;;;;;;;;4964540;28;20833;-70
2022/03/17 04:55:57;;;;;;;62.88;32.75;;;;;;;;;;4964592;28;20130;-70
2022/03/17 04:58:23;;;;;;;58.20;32.10;;;;;;;;;;4965412;28;20035;-70
2022/03/17 05:00:51;;;;;;;60.10;32.83;;;;;;;;;;4970977;28;20693;-70
2022/03/17 05:03:16;;;;;;;68.00;36.40;;;;;;;;;;4965872;28;20070;-70
2022/03/17 05:05:42;;;;;;;67.57;34.30;;;;;;;;;;4966303;28;20073;-70
2022/03/17 05:08:07;;;;;;;60.55;32.40;;;;;;;;;;4971900;28;20038;-70
2022/03/17 05:10:36;;;;;;;63.78;34.10;;;;;;;;;;4974597;28;20026;-71
2022/03/17 05:13:06;;;;;;;56.28;30.73;;;;;;;;;;4973680;28;20061;-70
2022/03/17 05:15:33;;;;;;;55.92;31.55;;;;;;;;;;4971975;28;20133;-70
2022/03/17 05:17:59;;;;;;;62.70;34.72;;;;;;;;;;4967931;28;20085;-70
2022/03/17 05:20:24;;;;;;;69.10;36.40;;;;;;;;;;4969332;28;20035;-70
2022/03/17 05:22:50;;;;;;;64.15;35.03;;;;;;;;;;4968172;28;20034;-70
2022/03/17 05:25:16;;;;;;;63.15;34.05;;;;;;;;;;4969478;28;20104;-70
2022/03/17 05:27:43;;;;;;;70.25;36.70;;;;;;;;;;4971858;28;20491;-69
2022/03/17 05:30:13;;;;;;;66.60;35.63;;;;;;;;;;4967890;28;20062;-69
2022/03/17 05:32:42;;;;;;;62.55;32.03;;;;;;;;;;4971162;28;20092;-69
2022/03/17 05:35:08;;;;;;;59.13;33.38;;;;;;;;;;4971015;28;20495;-70
2022/03/17 05:40:17;;;;;;;68.70;32.30;;;;;;;;;;5058243;22;20065;-69
2022/03/17 05:42:46;;;;;;;66.07;33.15;;;;;;;;;;4983023;28;20030;-69
2022/03/17 05:45:15;;;;;;;67.28;33.08;;;;;;;;;;4981989;28;20034;-69
2022/03/17 05:47:49;;;;;;;55.72;32.10;;;;;;;;;;4981920;28;20073;-69
2022/03/17 05:50:18;;;;;;;62.17;33.03;;;;;;;;;;4981828;28;20094;-69
2022/03/17 05:52:44;;;;;;;61.22;31.73;;;;;;;;;;4983245;28;20555;-69
2022/03/17 05:55:17;;;;;;;64.15;33.72;;;;;;;;;;4982891;28;20046;-69
2022/03/17 05:57:47;;;;;;;47.65;25.80;;;;;;;;;;4983099;28;20192;-69
2022/03/17 06:00:16;;;;;;;63.50;32.22;;;;;;;;;;4981289;28;20037;-69
2022/03/17 06:03:09;;;;;;;52.40;28.58;;;;;;;;;;4985332;28;20038;-69
2022/03/17 06:05:34;;;;;;;50.40;28.10;;;;;;;;;;4981308;28;20038;-69
2022/03/17 06:08:00;;;;;;;52.78;30.23;;;;;;;;;;4981610;28;20040;-69
2022/03/17 06:10:33;;;;;;;65.07;30.70;;;;;;;;;;4981101;28;20050;-69
2022/03/17 06:13:00;;;;;;;52.58;30.00;;;;;;;;;;4982883;28;20124;-69
2022/03/17 06:15:26;;;;;;;53.38;28.45;;;;;;;;;;4982552;28;20124;-68
2022/03/17 06:17:59;;;;;;;49.97;28.77;;;;;;;;;;4976442;28;20129;-69
2022/03/17 06:20:30;;;;;;;52.38;29.65;;;;;;;;;;4980768;28;20042;-69
2022/03/17 06:22:58;;;;;;;51.38;29.25;;;;;;;;;;4980629;28;20035;-69
2022/03/17 06:25:25;;;;;;;54.47;30.48;;;;;;;;;;4979797;28;20384;-69
2022/03/17 06:27:50;;;;;;;52.92;29.38;;;;;;;;;;4981344;28;20034;-69
2022/03/17 06:30:18;;;;;;;54.45;30.17;;;;;;;;;;4981170;28;20921;-69
2022/03/17 06:32:44;;;;;;;43.78;24.13;;;;;;;;;;4977725;28;20034;-68
2022/03/17 06:35:22;;;;;;;37.22;21.33;;;;;;;;;;4978974;28;20042;-69
2022/03/17 06:37:49;;;;;;;42.65;26.25;;;;;;;;;;4979686;28;20049;-68
2022/03/17 06:40:16;;;;;;;49.22;27.30;;;;;;;;;;4979953;28;20100;-69
2022/03/17 06:42:42;;;;;;;51.30;26.15;;;;;;;;;;4982774;28;20057;-68
2022/03/17 06:45:09;;;;;;;50.95;27.30;;;;;;;;;;4982690;28;20034;-69
2022/03/17 06:47:34;;;;;;;43.50;24.40;;;;;;;;;;4983178;28;20030;-69
2022/03/17 06:50:00;;;;;;;47.35;26.95;;;;;;;;;;4982641;28;20419;-69
2022/03/17 06:52:25;;;;;;;47.13;25.13;;;;;;;;;;4981846;28;20048;-69
2022/03/17 06:54:51;;;;;;;45.28;26.48;;;;;;;;;;4982212;28;20113;-69
2022/03/17 06:57:21;;;;;;;43.10;25.23;;;;;;;;;;4981718;28;20670;-68
2022/03/17 06:59:48;;;;;;;45.95;26.45;;;;;;;;;;4982556;28;20060;-68
2022/03/17 07:02:14;;;;;;;40.10;25.48;;;;;;;;;;4982135;28;20034;-69
2022/03/17 07:04:40;;;;;;;40.38;24.73;;;;;;;;;;4981425;28;20408;-68
2022/03/17 07:07:13;;;;;;;41.03;24.55;;;;;;;;;;4980729;28;20066;-69
2022/03/17 07:09:38;;;;;;;39.72;24.88;;;;;;;;;;4982526;28;20062;-69
2022/03/17 07:12:05;;;;;;;40.10;24.45;;;;;;;;;;4981791;28;20081;-68
2022/03/17 07:14:30;;;;;;;32.38;18.88;;;;;;;;;;4979991;28;20125;-69
2022/03/17 07:16:56;;;;;;;40.50;25.35;;;;;;;;;;4980379;28;20505;-70
2022/03/17 07:19:21;;;;;;;45.13;25.45;;;;;;;;;;4981959;28;20512;-70
2022/03/17 07:21:49;;;;;;;39.80;24.55;;;;;;;;;;4979933;28;20022;-69
2022/03/17 07:24:15;;;;;;;39.10;23.17;;;;;;;;;;4981944;28;20034;-70
2022/03/17 07:26:40;;;;;;;46.28;23.42;;;;;;;;;;4979880;28;20057;-70
2022/03/17 07:29:07;;;;;;;36.78;23.05;;;;;;;;;;4981736;28;20022;-70
2022/03/17 07:31:32;;;;;;;39.53;23.55;;;;;;;;;;4981703;28;20045;-70
2022/03/17 07:33:59;;;;;;;35.72;23.40;;;;;;;;;;4982103;28;20041;-69
2022/03/17 07:36:25;;;;;;;37.05;23.38;;;;;;;;;;4980634;28;20404;-69
2022/03/17 07:38:53;;;;;;;38.42;24.67;;;;;;;;;;4981982;28;20042;-69
2022/03/17 07:41:18;;;;;;;34.58;22.90;;;;;;;;;;4981266;28;20041;-69
2022/03/17 07:43:44;;;;;;;36.38;23.27;;;;;;;;;;4980060;28;20042;-70
2022/03/17 07:46:38;;;;;;;37.05;22.83;;;;;;;;;;4979839;28;20056;-70
2022/03/17 07:49:20;;;;;;;33.25;21.50;;;;;;;;;;4977923;28;20561;-69
2022/03/17 07:51:47;;;;;;;33.63;22.85;;;;;;;;;;4978788;28;20116;-69
2022/03/17 07:54:12;;;;;;;36.97;23.27;;;;;;;;;;4979959;28;20141;-70
2022/03/17 07:56:38;;;;;;;35.17;22.77;;;;;;;;;;4979864;28;20634;-69
2022/03/17 07:59:03;;;;;;;35.72;22.35;;;;;;;;;;4980602;28;20410;-70
2022/03/17 08:01:29;;;;;;;36.10;21.73;;;;;;;;;;4982096;28;20065;-70
2022/03/17 08:03:55;;;;;;;33.53;20.35;;;;;;;;;;4980492;28;20045;-70
2022/03/17 08:06:22;;;;;;;33.45;22.20;;;;;;;;;;4981431;28;20044;-70
2022/03/17 08:08:48;;;;;;;32.28;21.45;;;;;;;;;;4982864;28;20491;-69
2022/03/17 08:11:13;;;;;;;35.05;22.80;;;;;;;;;;4984880;28;20156;-69
2022/03/17 08:13:39;;;;;;;37.72;22.60;;;;;;;;;;4985632;28;20038;-69
2022/03/17 08:16:06;;;;;;;32.97;21.02;;;;;;;;;;4985138;28;20113;-69
2022/03/17 08:18:32;;;;;;;31.35;20.77;;;;;;;;;;4985693;28;20097;-69
2022/03/17 08:20:58;;;;;;;35.38;20.10;;;;;;;;;;4984684;28;20119;-69
2022/03/17 08:23:23;;;;;;;32.58;19.58;;;;;;;;;;4985517;28;20125;-69
2022/03/17 08:25:49;;;;;;;28.95;18.85;;;;;;;;;;4985227;28;20038;-70
2022/03/17 08:28:17;;;;;;;31.35;19.77;;;;;;;;;;4985337;28;20068;-69
2022/03/17 08:30:43;;;;;;;28.98;19.02;;;;;;;;;;4985235;28;20062;-69
2022/03/17 08:33:08;;;;;;;28.60;19.45;;;;;;;;;;4984099;28;20518;-69
2022/03/17 08:35:34;;;;;;;30.58;19.65;;;;;;;;;;4984858;28;20532;-69
2022/03/17 08:37:59;;;;;;;28.08;19.02;;;;;;;;;;4984931;28;20463;-69
2022/03/17 08:40:25;;;;;;;24.17;17.30;;;;;;;;;;4985291;28;20034;-69
2022/03/17 08:42:50;;;;;;;31.65;19.25;;;;;;;;;;4984244;28;20561;-68
2022/03/17 08:50:45;;;;;;;26.58;18.23;;;;;;;;;;4985076;28;20514;-69
2022/03/17 08:53:10;;;;;;;25.92;16.85;;;;;;;;;;4983956;28;20034;-69
2022/03/17 08:55:37;;;;;;;28.40;18.52;;;;;;;;;;4984648;28;20045;-69
2022/03/17 08:58:03;;;;;;;27.40;17.60;;;;;;;;;;4984591;28;20068;-69
2022/03/17 09:00:31;;;;;;;27.30;17.58;;;;;;;;;;4984894;28;20038;-69
2022/03/17 09:02:59;;;;;;;26.23;17.65;;;;;;;;;;4984807;28;20082;-69
2022/03/17 09:05:25;;;;;;;25.05;17.30;;;;;;;;;;4983591;28;20035;-69
2022/03/17 09:07:50;;;;;;;19.80;14.80;;;;;;;;;;4984273;28;20046;-68
2022/03/17 09:10:16;;;;;;;23.65;15.45;;;;;;;;;;4984684;28;20030;-69
2022/03/17 09:12:42;;;;;;;25.48;15.43;;;;;;;;;;4984639;28;20403;-70
2022/03/17 09:15:08;;;;;;;24.98;14.82;;;;;;;;;;4983585;28;20038;-69
2022/03/17 09:17:39;;;;;;;19.75;14.63;;;;;;;;;;4984045;28;20042;-69
2022/03/17 09:20:08;;;;;;;23.45;15.45;;;;;;;;;;4983438;28;20125;-69
2022/03/17 09:22:34;;;;;;;24.17;15.48;;;;;;;;;;4984307;28;20042;-70
2022/03/17 09:25:00;;;;;;;25.42;15.65;;;;;;;;;;4984199;28;20038;-69
2022/03/17 09:27:28;;;;;;;25.00;16.00;;;;;;;;;;4983409;28;20723;-70
2022/03/17 09:29:54;;;;;;;26.70;15.48;;;;;;;;;;4984207;28;20097;-69
2022/03/17 09:32:20;;;;;;;23.70;15.30;;;;;;;;;;4984383;28;21332;-69
2022/03/17 09:34:46;;;;;;;20.33;15.27;;;;;;;;;;4984269;28;20042;-69
2022/03/17 09:37:11;;;;;;;22.55;15.70;;;;;;;;;;4982814;28;20042;-69
2022/03/17 09:39:43;;;;;;;20.75;15.05;;;;;;;;;;4983994;28;20050;-69
2022/03/17 09:42:09;;;;;;;20.67;14.85;;;;;;;;;;4984150;28;20049;-69
2022/03/17 09:44:35;;;;;;;22.30;13.70;;;;;;;;;;4984065;28;20038;-69
2022/03/17 09:47:03;;;;;;;19.52;14.13;;;;;;;;;;4983847;28;20388;-68
2022/03/17 09:49:29;;;;;;;23.38;14.60;;;;;;;;;;4983216;28;20038;-69
2022/03/17 09:51:58;;;;;;;22.60;13.55;;;;;;;;;;4983579;28;20030;-69
2022/03/17 09:54:23;;;;;;;22.95;14.98;;;;;;;;;;4983602;28;20069;-70
2022/03/17 09:56:49;;;;;;;29.30;13.93;;;;;;;;;;4983808;28;20046;-69
2022/03/17 09:59:14;;;;;;;20.90;14.50;;;;;;;;;;4982963;28;20030;-69
2022/03/17 10:01:41;;;;;;;21.27;15.02;;;;;;;;;;4983320;28;20073;-69
2022/03/17 10:04:07;;;;;;;25.65;15.07;;;;;;;;;;4983257;28;20038;-69
2022/03/17 10:06:32;;;;;;;20.10;14.98;;;;;;;;;;4983495;28;20093;-69
2022/03/17 10:08:58;;;;;;;21.10;13.95;;;;;;;;;;4983480;28;20042;-69
2022/03/17 10:11:32;;;;;;;20.70;13.85;;;;;;;;;;4982285;28;20564;-69
2022/03/17 10:13:59;;;;;;;17.67;13.23;;;;;;;;;;4983264;28;20245;-69
2022/03/17 10:16:27;;;;;;;19.42;14.35;;;;;;;;;;4982817;28;20053;-69
2022/03/17 10:19:00;;;;;;;22.92;14.48;;;;;;;;;;4983461;28;20037;-69
2022/03/17 10:21:28;;;;;;;21.00;13.95;;;;;;;;;;4982255;28;20105;-69
2022/03/17 10:24:04;;;;;;;20.85;14.38;;;;;;;;;;4983455;28;20045;-69
2022/03/17 10:26:41;;;;;;;21.35;13.95;;;;;;;;;;4983335;28;20478;-69
2022/03/17 10:29:09;;;;;;;22.33;13.60;;;;;;;;;;4982872;28;20419;-69
2022/03/17 10:32:01;;;;;;;17.88;12.45;;;;;;;;;;4981354;28;20052;-69
2022/03/17 10:34:30;;;;;;;30.50;16.15;;;;;;;;;;4981622;28;20041;-68
2022/03/17 10:37:07;;;;;;;24.17;14.00;;;;;;;;;;4982807;28;20515;-69
2022/03/17 10:39:57;;;;;;;20.42;14.38;;;;;;;;;;4982824;28;20121;-69
2022/03/17 10:42:27;;;;;;;20.15;13.57;;;;;;;;;;4979943;28;20050;-69
2022/03/17 10:45:05;;;;;;;18.13;13.27;;;;;;;;;;4981822;28;20467;-69
2022/03/17 10:47:35;;;;;;;24.13;13.05;;;;;;;;;;4982631;28;20096;-69
2022/03/17 10:50:11;;;;;;;23.10;12.30;;;;;;;;;;4983206;28;20563;-69
2022/03/17 10:53:05;;;;;;;22.95;12.00;;;;;;;;;;4983711;28;20045;-69
2022/03/17 10:55:33;;;;;;;24.55;14.27;;;;;;;;;;4964624;28;20457;-69
2022/03/17 10:58:16;;;;;;;20.63;12.20;;;;;;;;;;4982317;28;20554;-70
2022/03/17 11:00:52;;;;;;;23.05;12.65;;;;;;;;;;4982264;28;20518;-68
2022/03/17 11:03:19;;;;;;;20.23;12.80;;;;;;;;;;4980990;28;20447;-68
2022/03/17 11:05:45;;;;;;;18.63;12.68;;;;;;;;;;4981424;28;20030;-68
2022/03/17 11:08:12;;;;;;;25.42;13.98;;;;;;;;;;4982241;28;20096;-69
2022/03/17 11:10:40;;;;;;;19.95;12.98;;;;;;;;;;4982423;28;20046;-68
2022/03/17 11:13:11;;;;;;;21.63;11.45;;;;;;;;;;4982292;28;20038;-68
2022/03/17 11:16:09;;;;;;;20.40;12.10;;;;;;;;;;4980676;28;20476;-68
2022/03/17 11:18:37;;;;;;;26.58;12.77;;;;;;;;;;4982161;28;20502;-69
2022/03/17 11:21:25;;;;;;;20.55;12.23;;;;;;;;;;4982310;28;20038;-69
2022/03/17 11:23:56;;;;;;;25.45;12.95;;;;;;;;;;4980880;28;20088;-69
2022/03/17 11:26:44;;;;;;;24.23;13.85;;;;;;;;;;4981921;28;20046;-69
2022/03/17 11:29:18;;;;;;;20.30;12.00;;;;;;;;;;4980919;28;20554;-69
2022/03/17 11:31:52;;;;;;;22.15;12.32;;;;;;;;;;4981779;28;20149;-69
2022/03/17 11:34:48;;;;;;;15.93;11.25;;;;;;;;;;4981893;28;20049;-69
2022/03/17 11:37:16;;;;;;;25.25;12.02;;;;;;;;;;4981668;28;20172;-69
2022/03/17 11:40:00;;;;;;;19.00;12.20;;;;;;;;;;4980665;28;20069;-69
2022/03/17 11:42:28;;;;;;;25.60;13.90;;;;;;;;;;4981717;28;20034;-69
2022/03/17 11:45:14;;;;;;;21.05;13.20;;;;;;;;;;4981303;28;20994;-68
2022/03/17 11:47:47;;;;;;;24.33;13.80;;;;;;;;;;4981594;28;20479;-69
2022/03/17 11:50:28;;;;;;;23.27;12.60;;;;;;;;;;4981850;28;20088;-69
2022/03/17 11:53:03;;;;;;;18.17;12.70;;;;;;;;;;4981696;28;20049;-69
2022/03/17 11:55:35;;;;;;;23.23;13.50;;;;;;;;;;4981235;28;20066;-69
2022/03/17 11:58:16;;;;;;;33.85;13.40;;;;;;;;;;4981363;28;20038;-69
2022/03/17 12:00:46;;;;;;;21.50;14.05;;;;;;;;;;4980787;28;20048;-69
2022/03/17 12:03:11;;;;;;;23.00;13.48;;;;;;;;;;4981345;28;20050;-69
2022/03/17 12:05:43;;;;;;;19.80;12.98;;;;;;;;;;4981556;28;20050;-69
2022/03/17 12:08:16;;;;;;;18.58;13.52;;;;;;;;;;4981673;28;20094;-69
2022/03/17 12:11:05;;;;;;;22.73;13.57;;;;;;;;;;4981956;28;20053;-69
2022/03/17 12:13:32;;;;;;;21.85;13.10;;;;;;;;;;4981232;28;20117;-69
2022/03/17 12:15:58;;;;;;;22.17;14.73;;;;;;;;;;4981188;28;20041;-69
2022/03/17 12:18:23;;;;;;;19.25;13.60;;;;;;;;;;4981609;28;20034;-69
2022/03/17 12:20:52;;;;;;;22.17;14.05;;;;;;;;;;4981499;28;20439;-69
2022/03/17 12:23:47;;;;;;;26.35;13.30;;;;;;;;;;4980241;28;20157;-69
2022/03/17 12:26:12;;;;;;;17.83;13.02;;;;;;;;;;4981160;28;20069;-69
2022/03/17 12:28:45;;;;;;;19.00;13.88;;;;;;;;;;4981276;28;20070;-69
2022/03/17 12:31:11;;;;;;;21.30;13.82;;;;;;;;;;4979929;28;20041;-68
2022/03/17 12:33:43;;;;;;;26.13;12.60;;;;;;;;;;4979509;28;20573;-68
2022/03/17 12:36:08;;;;;;;;;;;;;;;;;;4980999;28;20043;-69
2022/03/17 12:38:34;;;;;;;21.20;14.50;;;;;;;;;;4981160;28;19917;-69
2022/03/17 12:41:00;;;;;;;23.73;13.23;;;;;;;;;;4981025;28;20184;-69
2022/03/17 12:43:26;;;;;;;26.90;13.25;;;;;;;;;;4981340;28;20514;-69
2022/03/17 12:45:52;;;;;;;20.30;13.32;;;;;;;;;;4979909;28;21314;-69
2022/03/17 12:48:19;;;;;;;23.55;13.07;;;;;;;;;;4980901;28;20082;-69
2022/03/17 12:50:45;;;;;;;28.80;13.90;;;;;;;;;;4981387;28;20057;-69
2022/03/17 12:53:11;;;;;;;25.90;15.20;;;;;;;;;;4981088;28;20173;-69
2022/03/17 12:55:37;;;;;;;28.33;13.93;;;;;;;;;;4982636;28;20045;-69
2022/03/17 12:58:04;;;;;;;27.65;13.45;;;;;;;;;;4984462;28;20495;-68
2022/03/17 13:00:31;;;;;;;22.25;13.48;;;;;;;;;;4982741;28;20137;-68
2022/03/17 13:03:00;;;;;;;22.08;14.00;;;;;;;;;;4984754;28;20472;-68
2022/03/17 13:08:13;;;;;;;25.13;14.15;;;;;;;;;;4973577;28;20050;-67
2022/03/17 13:16:09;;;;;;;27.05;14.30;;;;;;;;;;4983772;28;20110;-69
2022/03/17 13:18:47;;;;;;;19.00;14.35;;;;;;;;;;4983328;28;20070;-69
2022/03/17 13:21:14;;;;;;;24.25;13.77;;;;;;;;;;4984393;28;20053;-69
2022/03/17 13:23:40;;;;;;;20.60;13.57;;;;;;;;;;4983274;28;20499;-69
2022/03/17 13:26:05;;;;;;;27.17;14.48;;;;;;;;;;4983609;28;20045;-69
2022/03/17 13:28:31;;;;;;;21.05;13.43;;;;;;;;;;4982464;28;20034;-69
2022/03/17 13:30:56;;;;;;;26.70;13.65;;;;;;;;;;4984082;28;20703;-68
2022/03/17 13:33:30;;;;;;;30.17;14.98;;;;;;;;;;4984312;28;20038;-69
2022/03/17 13:35:55;;;;;;;23.30;13.65;;;;;;;;;;4983621;28;20038;-70
2022/03/17 13:38:29;;;;;;;29.45;15.38;;;;;;;;;;4983980;28;20503;-68
2022/03/17 13:40:56;;;;;;;28.98;15.27;;;;;;;;;;4982756;28;20049;-68
2022/03/17 13:43:35;;;;;;;25.00;15.45;;;;;;;;;;4983930;28;20937;-69
2022/03/17 13:46:22;;;;;;;25.95;15.32;;;;;;;;;;4983774;28;20104;-68
2022/03/17 13:48:48;;;;;;;30.88;15.27;;;;;;;;;;4983857;28;20030;-68
2022/03/17 13:51:22;;;;;;;29.10;14.95;;;;;;;;;;4983034;28;20038;-68
2022/03/17 13:53:48;;;;;;;20.92;14.88;;;;;;;;;;4983832;28;20408;-69
2022/03/17 13:56:13;;;;;;;22.88;15.30;;;;;;;;;;4983122;28;20073;-68
2022/03/17 13:58:40;;;;;;;23.17;15.35;;;;;;;;;;4983312;28;20034;-69
2022/03/17 14:01:07;;;;;;;27.63;16.60;;;;;;;;;;4982344;28;20419;-68
2022/03/17 14:03:34;;;;;;;27.33;16.75;;;;;;;;;;4983695;28;20046;-68
2022/03/17 14:06:00;;;;;;;25.73;15.18;;;;;;;;;;4982642;28;20725;-68
2022/03/17 14:08:26;;;;;;;29.67;17.58;;;;;;;;;;4983333;28;20062;-68
2022/03/17 14:10:51;;;;;;;25.00;16.05;;;;;;;;;;4983675;28;20026;-69
2022/03/17 14:13:18;;;;;;;23.98;16.42;;;;;;;;;;4982998;28;20104;-69
2022/03/17 14:15:44;;;;;;;25.90;16.73;;;;;;;;;;4983030;28;20034;-68
2022/03/17 14:18:10;;;;;;;31.63;17.10;;;;;;;;;;4983780;28;20038;-68
2022/03/17 14:20:36;;;;;;;25.85;16.42;;;;;;;;;;4983795;28;20080;-68
2022/03/17 14:25:46;;;;;;;26.95;15.75;;;;;;;;;;4982902;28;20030;-68
2022/03/17 14:28:11;;;;;;;23.60;16.10;;;;;;;;;;4982962;28;20050;-68
2022/03/17 14:30:37;;;;;;;27.25;16.45;;;;;;;;;;4982902;28;20037;-68
2022/03/17 14:33:02;;;;;;;26.05;17.98;;;;;;;;;;4982903;28;20573;-69
2022/03/17 14:35:28;;;;;;;38.00;19.25;;;;;;;;;;4981754;28;20161;-68
2022/03/17 14:37:53;;;;;;;31.67;20.10;;;;;;;;;;4981901;28;20034;-69
2022/03/17 14:40:19;;;;;;;32.22;20.20;;;;;;;;;;4981882;28;20452;-68
2022/03/17 14:42:44;;;;;;;35.28;22.00;;;;;;;;;;4981400;28;20141;-68
2022/03/17 14:45:10;;;;;;;37.40;22.92;;;;;;;;;;4980669;28;20077;-69
2022/03/17 14:47:36;;;;;;;49.92;24.98;;;;;;;;;;4981782;28;20069;-68
2022/03/17 14:50:01;;;;;;;47.55;30.73;;;;;;;;;;4981999;28;20042;-68
2022/03/17 14:52:27;;;;;;;42.90;23.80;;;;;;;;;;4982092;28;20034;-68
2022/03/17 14:54:52;;;;;;;32.70;21.48;;;;;;;;;;4981852;28;20496;-68
2022/03/17 14:57:20;;;;;;;36.50;21.48;;;;;;;;;;4980815;28;20548;-68